Terminal Aerodrome Forecast
Issued by NWS

Home | Current Version | Previous Version | Text Only | Print | Product List | Glossary Off
Versions: 1 2 3 4 5 6 7 8 9 10 11 12 13 14 15 16

000
FTUS44 KTSA 010800 AAA
TAFBVO
TAF AMD
KBVO 010810Z 0108/0206 36010KT P6SM VCTS SCT040CB BKN250
      TEMPO 0108/0112 VRB20G40KT 6SM -TSRA BKN035CB
     FM011400 19015KT P6SM BKN250
     FM011700 19015G22KT P6SM SCT050 BKN250
     FM020100 18012KT P6SM SCT050 BKN250 PROB30 0203/0206 5SM -TSRA
      BKN050CB=

USA.gov is the U.S. government's official web portal to all federal, state and local government web resources and services.